TimePDT,TemperatureF,Dew PointF,Humidity,Sea Level PressureIn,VisibilityMPH,Wind Direction,Wind SpeedMPH,Gust SpeedMPH,PrecipitationIn,Events,Conditions,WindDirDegrees,DateUTC
12:53 AM,66.9,57.0,70,29.93,10.0,Calm,Calm,-,N/A,,Clear,0,2013-08-12 07:53:00
1:53 AM,66.0,57.9,75,29.92,10.0,Calm,Calm,-,N/A,,Clear,0,2013-08-12 08:53:00
2:42 AM,66.2,59.0,78,29.92,10.0,South,6.9,-,N/A,,Mostly Cloudy,170,2013-08-12 09:42:00
2:49 AM,66.2,59.0,78,29.92,10.0,South,5.8,-,N/A,,Mostly Cloudy,170,2013-08-12 09:49:00
2:53 AM,64.9,59.0,81,29.92,10.0,Calm,Calm,-,N/A,,Mostly Cloudy,0,2013-08-12 09:53:00
3:24 AM,66.2,59.0,78,29.92,10.0,South,3.5,-,N/A,,Overcast,170,2013-08-12 10:24:00
3:53 AM,66.0,57.9,75,29.92,10.0,South,3.5,-,N/A,,Overcast,190,2013-08-12 10:53:00
4:53 AM,66.0,59.0,78,29.92,10.0,SSW,4.6,-,N/A,,Overcast,200,2013-08-12 11:53:00
5:53 AM,66.0,57.9,75,29.94,10.0,Variable,3.5,-,N/A,,Overcast,0,2013-08-12 12:53:00
6:53 AM,66.9,57.9,73,29.95,9.0,Calm,Calm,-,N/A,,Overcast,0,2013-08-12 13:53:00
7:53 AM,66.9,57.0,70,29.95,9.0,Calm,Calm,-,N/A,,Overcast,0,2013-08-12 14:53:00
8:53 AM,69.1,57.9,68,29.96,8.0,Calm,Calm,-,N/A,,Overcast,0,2013-08-12 15:53:00
9:51 AM,71.6,57.2,60,29.97,8.0,Variable,4.6,-,N/A,,Scattered Clouds,0,2013-08-12 16:51:00
9:53 AM,72.0,57.9,61,29.97,8.0,Variable,4.6,-,N/A,,Scattered Clouds,0,2013-08-12 16:53:00
10:53 AM,75.0,57.9,55,29.96,8.0,Calm,Calm,-,N/A,,Clear,0,2013-08-12 17:53:00
11:53 AM,78.1,57.0,48,29.95,10.0,Variable,3.5,-,N/A,,Clear,0,2013-08-12 18:53:00
12:53 PM,82.0,57.9,44,29.93,10.0,Variable,5.8,-,N/A,,Clear,0,2013-08-12 19:53:00
1:53 PM,81.0,57.9,45,29.91,10.0,SSW,8.1,-,N/A,,Clear,200,2013-08-12 20:53:00
2:53 PM,81.0,59.0,47,29.91,10.0,SW,8.1,-,N/A,,Clear,220,2013-08-12 21:53:00
3:53 PM,80.1,59.0,48,29.89,10.0,SSW,8.1,-,N/A,,Clear,200,2013-08-12 22:53:00
4:53 PM,79.0,59.0,50,29.88,10.0,SSW,6.9,-,N/A,,Clear,210,2013-08-12 23:53:00
5:53 PM,79.0,60.1,52,29.88,10.0,SSW,6.9,-,N/A,,Clear,200,2013-08-13 00:53:00
6:53 PM,77.0,59.0,54,29.88,10.0,South,5.8,-,N/A,,Clear,180,2013-08-13 01:53:00
7:53 PM,73.9,59.0,59,29.90,8.0,Variable,4.6,-,N/A,,Clear,0,2013-08-13 02:53:00
8:53 PM,70.0,59.0,68,29.92,10.0,WNW,3.5,-,N/A,,Clear,300,2013-08-13 03:53:00
9:53 PM,69.1,59.0,70,29.93,9.0,WNW,3.5,-,N/A,,Clear,290,2013-08-13 04:53:00
10:53 PM,68.0,59.0,73,29.94,8.0,Calm,Calm,-,N/A,,Clear,0,2013-08-13 05:53:00
11:53 PM,68.0,59.0,73,29.94,8.0,Calm,Calm,-,N/A,,Clear,0,2013-08-13 06:53:00